Time;durP1;ratioP1;P1;durP2;ratioP2;P2;SDS_P1;SDS_P2;PMS_P1;PMS_P2;Temp;Humidity;BMP_temperature;BMP_pressure;BME280_temperature;BME280_humidity;BME280_pressure;Samples;Min_cycle;Max_cycle;Signal;HPM_P1;HPM_P2
2023/03/12 00:00:47;;;;;;;4.55;2.20;;;4.40;69.70;;;;;;5017989;28;20536;-62
2023/03/12 00:03:13;;;;;;;4.38;2.35;;;4.40;69.50;;;;;;5019236;28;20029;-61
2023/03/12 00:05:40;;;;;;;3.55;2.20;;;4.50;69.70;;;;;;5004050;28;20133;-62
2023/03/12 00:08:06;;;;;;;3.55;2.15;;;4.50;69.80;;;;;;5001018;28;20072;-61
2023/03/12 00:10:33;;;;;;;2.97;1.95;;;4.50;69.80;;;;;;5014300;28;20114;-72
2023/03/12 00:12:59;;;;;;;2.65;1.55;;;4.50;69.90;;;;;;5020657;28;20040;-71
2023/03/12 00:15:25;;;;;;;2.35;2.03;;;4.50;69.90;;;;;;5016145;28;20473;-71
2023/03/12 00:17:50;;;;;;;2.28;1.98;;;4.50;70.00;;;;;;4998845;28;20026;-72
2023/03/12 00:20:17;;;;;;;2.40;1.77;;;4.50;70.00;;;;;;5024245;28;20063;-71
2023/03/12 00:22:42;;;;;;;1.95;1.70;;;4.60;70.00;;;;;;5024018;28;20061;-71
2023/03/12 00:25:13;;;;;;;2.63;2.38;;;4.60;70.00;;;;;;5024892;28;20469;-70
2023/03/12 00:27:39;;;;;;;2.10;1.83;;;4.60;70.10;;;;;;5020712;28;20040;-71
2023/03/12 00:30:06;;;;;;;2.78;2.15;;;4.60;70.10;;;;;;5022633;28;20060;-70
2023/03/12 00:32:32;;;;;;;1.80;1.63;;;4.60;70.10;;;;;;5022456;28;20042;-71
2023/03/12 00:34:58;;;;;;;4.18;2.22;;;4.50;70.00;;;;;;5022708;28;20030;-71
2023/03/12 00:37:23;;;;;;;3.33;1.77;;;4.60;70.10;;;;;;5026443;28;20096;-71
2023/03/12 00:39:49;;;;;;;3.50;2.38;;;4.60;70.10;;;;;;5023233;28;20036;-62
2023/03/12 00:42:16;;;;;;;2.33;1.80;;;4.60;70.20;;;;;;5024202;28;20040;-62
2023/03/12 00:44:43;;;;;;;3.50;2.25;;;4.60;70.20;;;;;;5020933;28;20030;-61
2023/03/12 00:47:09;;;;;;;3.42;2.28;;;4.60;70.30;;;;;;5000872;28;20026;-60
2023/03/12 00:49:34;;;;;;;4.53;2.33;;;4.60;70.30;;;;;;5019411;28;20610;-60
2023/03/12 00:52:00;;;;;;;2.47;1.92;;;4.60;70.30;;;;;;5020303;28;20029;-61
2023/03/12 00:54:26;;;;;;;2.55;1.65;;;4.70;70.30;;;;;;5002888;28;20021;-72
2023/03/12 00:56:52;;;;;;;9.00;1.67;;;4.70;70.30;;;;;;5023759;28;20057;-62
2023/03/12 00:59:18;;;;;;;2.65;2.08;;;4.70;70.40;;;;;;5008782;28;20069;-62
2023/03/12 01:01:44;;;;;;;2.10;1.90;;;4.70;70.40;;;;;;5018808;28;20041;-71
2023/03/12 01:04:09;;;;;;;3.13;1.60;;;4.70;70.40;;;;;;5022720;28;20585;-71
2023/03/12 01:06:35;;;;;;;8.20;2.58;;;4.70;70.50;;;;;;5023096;28;20489;-71
2023/03/12 01:09:04;;;;;;;2.45;2.10;;;4.70;70.60;;;;;;5021991;28;20033;-72
2023/03/12 01:11:31;;;;;;;4.72;2.25;;;4.70;70.70;;;;;;5019070;28;20057;-70
2023/03/12 01:14:00;;;;;;;2.60;2.10;;;4.70;70.70;;;;;;5019670;28;20073;-65
2023/03/12 01:16:28;;;;;;;5.65;2.42;;;4.70;70.70;;;;;;5020464;28;20017;-64
2023/03/12 01:18:55;;;;;;;4.13;2.13;;;4.70;70.70;;;;;;5023872;28;20472;-64
2023/03/12 01:21:22;;;;;;;2.10;1.80;;;4.70;70.80;;;;;;5020924;28;20036;-64
2023/03/12 01:23:47;;;;;;;2.30;1.67;;;4.70;70.70;;;;;;5020631;28;20048;-70
2023/03/12 01:26:13;;;;;;;2.65;2.05;;;4.70;70.70;;;;;;5006630;28;20408;-70
2023/03/12 01:28:39;;;;;;;2.50;1.92;;;4.70;70.80;;;;;;5010479;28;20096;-71
2023/03/12 01:31:10;;;;;;;3.15;1.83;;;4.70;70.80;;;;;;5020746;28;20026;-72
2023/03/12 01:33:35;;;;;;;6.78;1.75;;;4.70;70.80;;;;;;5001184;28;20030;-71
2023/03/12 01:36:01;;;;;;;2.45;1.55;;;4.70;70.80;;;;;;5021437;28;20024;-72
2023/03/12 01:38:27;;;;;;;4.35;2.25;;;4.70;70.90;;;;;;5021997;28;20033;-72
2023/03/12 01:40:53;;;;;;;4.57;1.60;;;4.70;70.80;;;;;;5005583;28;20116;-72
2023/03/12 01:43:28;;;;;;;5.07;2.38;;;4.70;70.90;;;;;;5015519;28;20034;-71
2023/03/12 01:46:03;;;;;;;2.20;2.00;;;4.60;71.00;;;;;;5022567;28;20033;-71
2023/03/12 01:48:35;;;;;;;2.75;1.90;;;4.60;71.10;;;;;;5020125;28;20046;-71
2023/03/12 01:51:01;;;;;;;4.22;2.22;;;4.60;71.10;;;;;;5022119;28;20036;-71
2023/03/12 01:53:29;;;;;;;2.03;1.60;;;4.60;71.20;;;;;;5023344;28;20029;-71
2023/03/12 01:55:56;;;;;;;9.02;2.05;;;4.50;71.20;;;;;;5003357;28;20112;-71
2023/03/12 01:58:22;;;;;;;2.75;1.48;;;4.50;71.00;;;;;;5026207;28;20025;-62
2023/03/12 02:00:47;;;;;;;3.05;1.83;;;4.50;71.10;;;;;;5019837;28;20040;-62
2023/03/12 02:03:14;;;;;;;3.60;2.03;;;4.50;71.10;;;;;;5022689;28;20038;-62
2023/03/12 02:05:54;;;;;;;3.30;1.73;;;4.40;71.20;;;;;;5019253;28;20056;-62
2023/03/12 02:08:22;;;;;;;1.88;1.60;;;4.40;71.20;;;;;;5021020;28;20036;-61
2023/03/12 02:10:47;;;;;;;2.05;1.67;;;4.40;71.20;;;;;;5022142;28;20399;-72
2023/03/12 02:13:13;;;;;;;1.95;1.42;;;4.40;71.40;;;;;;5021975;28;20034;-71
2023/03/12 02:15:39;;;;;;;1.48;1.30;;;4.40;71.50;;;;;;5018137;28;20116;-71
2023/03/12 02:18:10;;;;;;;2.80;1.70;;;4.40;71.50;;;;;;5018331;28;20022;-71
2023/03/12 02:20:41;;;;;;;3.83;1.52;;;4.40;71.40;;;;;;5018209;28;20022;-62
2023/03/12 02:23:40;;;;;;;3.17;2.03;;;4.40;71.60;;;;;;5001083;28;20079;-62
2023/03/12 02:26:06;;;;;;;2.83;1.40;;;4.40;71.50;;;;;;5023638;28;20297;-72
2023/03/12 02:28:34;;;;;;;3.03;1.45;;;4.40;71.50;;;;;;4984942;28;20044;-72
2023/03/12 02:31:03;;;;;;;4.40;2.17;;;4.30;71.60;;;;;;5018234;28;20044;-62
2023/03/12 02:33:28;;;;;;;2.70;2.05;;;4.30;71.60;;;;;;5018239;28;20051;-62
2023/03/12 02:35:55;;;;;;;2.47;1.75;;;4.40;71.80;;;;;;5014773;28;20041;-63
2023/03/12 02:38:47;;;;;;;1.90;1.58;;;4.30;71.70;;;;;;5015861;28;20022;-62
2023/03/12 02:41:12;;;;;;;2.80;1.23;;;4.40;71.90;;;;;;5018296;28;20026;-63
2023/03/12 02:43:39;;;;;;;2.10;1.40;;;4.30;72.00;;;;;;5025295;28;20025;-62
2023/03/12 02:46:06;;;;;;;2.63;1.67;;;4.40;72.20;;;;;;5016767;28;20049;-61
2023/03/12 02:48:32;;;;;;;2.72;1.73;;;4.40;72.20;;;;;;5014294;28;20037;-62
2023/03/12 02:50:58;;;;;;;3.00;1.48;;;4.40;72.30;;;;;;5000846;28;20029;-62
2023/03/12 02:53:24;;;;;;;2.88;1.55;;;4.40;72.30;;;;;;5015709;28;20504;-62
2023/03/12 02:55:49;;;;;;;2.55;1.60;;;4.40;72.30;;;;;;5005260;28;20021;-62
2023/03/12 02:58:15;;;;;;;3.67;2.05;;;4.40;72.30;;;;;;5009012;28;20185;-61
2023/03/12 03:00:40;;;;;;;2.08;1.42;;;4.50;72.40;;;;;;5021681;28;20041;-63
2023/03/12 03:03:06;;;;;;;3.38;1.55;;;4.50;72.40;;;;;;5021090;28;20120;-61
2023/03/12 03:05:35;;;;;;;2.28;1.85;;;4.50;72.30;;;;;;5019861;28;20045;-62
2023/03/12 03:08:01;;;;;;;2.90;1.77;;;4.60;72.30;;;;;;5018879;28;20053;-62
2023/03/12 03:10:27;;;;;;;3.10;1.17;;;4.60;72.30;;;;;;5021643;28;20029;-69
2023/03/12 03:12:52;;;;;;;2.70;1.30;;;4.60;72.40;;;;;;4998654;28;20034;-70
2023/03/12 03:15:18;;;;;;;7.88;1.77;;;4.60;72.40;;;;;;5015710;28;20057;-70
2023/03/12 03:17:44;;;;;;;2.53;1.65;;;4.60;72.40;;;;;;5012586;28;20524;-61
2023/03/12 03:20:11;;;;;;;2.00;1.33;;;4.60;72.30;;;;;;5018905;28;20037;-62
2023/03/12 03:22:38;;;;;;;1.20;1.10;;;4.60;72.30;;;;;;5017106;28;20040;-63
2023/03/12 03:25:05;;;;;;;1.80;1.40;;;4.70;72.20;;;;;;5002811;28;20044;-62
2023/03/12 03:27:31;;;;;;;2.05;1.20;;;4.70;72.20;;;;;;5020587;28;20025;-62
2023/03/12 03:29:56;;;;;;;1.20;0.98;;;4.70;72.30;;;;;;5022918;28;20056;-71
2023/03/12 03:32:22;;;;;;;1.77;1.30;;;4.70;72.30;;;;;;5016805;28;20497;-72
2023/03/12 03:34:48;;;;;;;0.93;0.77;;;4.60;72.30;;;;;;5019850;28;20037;-71
2023/03/12 03:37:13;;;;;;;2.50;1.88;;;4.70;72.20;;;;;;5000786;28;20037;-71
2023/03/12 03:39:39;;;;;;;1.25;1.15;;;4.70;72.20;;;;;;5019139;28;20783;-62
2023/03/12 03:42:05;;;;;;;2.45;1.35;;;4.70;72.00;;;;;;5023729;28;20117;-60
2023/03/12 03:44:30;;;;;;;3.85;1.35;;;4.70;72.00;;;;;;5022325;28;20041;-62
2023/03/12 03:46:56;;;;;;;1.85;1.35;;;4.70;72.00;;;;;;5008296;28;20041;-61
2023/03/12 03:49:22;;;;;;;1.20;0.90;;;4.70;72.40;;;;;;5016018;28;20080;-61
2023/03/12 03:51:50;;;;;;;3.92;1.77;;;4.70;71.70;;;;;;5020866;28;20034;-62
2023/03/12 03:54:16;;;;;;;4.47;1.83;;;4.70;71.60;;;;;;5023280;28;20455;-62
2023/03/12 03:56:42;;;;;;;3.22;1.75;;;4.70;71.60;;;;;;5025586;28;20029;-62
2023/03/12 03:59:09;;;;;;;1.63;1.30;;;4.80;71.50;;;;;;5003269;28;20045;-70
2023/03/12 04:01:35;;;;;;;1.83;1.40;;;4.80;71.40;;;;;;5021853;28;20026;-70
2023/03/12 04:04:01;;;;;;;3.47;1.48;;;4.80;71.40;;;;;;4989151;28;20475;-63
2023/03/12 04:06:28;;;;;;;1.33;1.17;;;4.80;70.90;;;;;;5004656;28;20040;-62
2023/03/12 04:08:55;;;;;;;5.03;1.80;;;4.80;70.80;;;;;;5023658;28;20120;-70
2023/03/12 04:11:21;;;;;;;5.00;2.00;;;4.80;70.70;;;;;;5023292;28;20433;-71
2023/03/12 04:13:48;;;;;;;2.60;1.27;;;4.80;70.50;;;;;;5021132;28;20097;-71
2023/03/12 04:16:14;;;;;;;1.63;1.45;;;4.80;71.00;;;;;;5024542;28;20061;-71
2023/03/12 04:18:40;;;;;;;4.07;1.63;;;4.80;70.40;;;;;;5008358;28;20106;-69
2023/03/12 04:21:08;;;;;;;4.82;1.98;;;4.80;70.40;;;;;;5023627;28;20268;-62
2023/03/12 04:23:34;;;;;;;2.70;1.30;;;4.80;70.30;;;;;;5022883;28;20155;-61
2023/03/12 04:26:00;;;;;;;2.20;1.50;;;4.80;70.30;;;;;;5021176;28;20053;-61
2023/03/12 04:28:25;;;;;;;8.77;2.15;;;4.80;70.00;;;;;;5017392;28;20403;-61
2023/03/12 04:30:59;;;;;;;1.73;1.40;;;4.80;69.90;;;;;;5026501;28;20071;-62
2023/03/12 04:33:30;;;;;;;2.53;1.42;;;4.80;69.80;;;;;;5026705;28;20033;-63
2023/03/12 04:35:56;;;;;;;4.00;1.83;;;4.80;69.70;;;;;;5029653;28;20017;-70
2023/03/12 04:38:23;;;;;;;2.65;1.75;;;4.80;69.60;;;;;;5019178;28;20037;-70
2023/03/12 04:40:59;;;;;;;7.47;1.73;;;4.90;69.60;;;;;;5021189;28;20025;-70
2023/03/12 04:43:25;;;;;;;1.92;1.25;;;4.90;69.40;;;;;;5026260;28;20029;-70
2023/03/12 04:45:51;;;;;;;2.35;1.27;;;4.90;69.50;;;;;;5019537;28;20120;-61
2023/03/12 04:48:16;;;;;;;1.23;1.10;;;4.90;69.70;;;;;;5021508;28;20340;-61
2023/03/12 04:50:43;;;;;;;2.70;1.33;;;4.90;69.60;;;;;;5006707;28;20025;-61
2023/03/12 04:53:12;;;;;;;4.45;1.33;;;4.90;69.50;;;;;;5027860;28;20064;-61
2023/03/12 04:55:38;;;;;;;1.25;1.15;;;4.90;69.60;;;;;;5018843;28;20053;-61
2023/03/12 04:58:04;;;;;;;2.63;1.40;;;4.90;69.70;;;;;;5002091;28;20071;-61
2023/03/12 05:00:30;;;;;;;2.67;1.52;;;4.90;69.80;;;;;;5024165;28;20075;-70
2023/03/12 05:02:55;;;;;;;3.10;1.42;;;4.90;69.90;;;;;;4983491;28;20041;-70
2023/03/12 05:05:21;;;;;;;1.85;1.13;;;4.90;69.90;;;;;;4990201;28;20112;-62
2023/03/12 05:07:47;;;;;;;5.82;1.83;;;5.00;69.80;;;;;;5005293;28;20030;-62
2023/03/12 05:10:12;;;;;;;1.55;1.17;;;5.00;69.90;;;;;;5023370;28;20079;-61
2023/03/12 05:12:38;;;;;;;2.13;1.17;;;5.00;70.60;;;;;;5004301;28;20038;-70
2023/03/12 05:15:04;;;;;;;0.90;0.90;;;5.00;69.90;;;;;;5020220;28;20363;-70
2023/03/12 05:17:30;;;;;;;2.85;1.30;;;5.00;70.00;;;;;;5017508;28;20056;-70
2023/03/12 05:19:56;;;;;;;2.08;1.13;;;5.00;70.00;;;;;;5020604;28;20034;-70
2023/03/12 05:22:23;;;;;;;3.03;1.20;;;5.00;70.10;;;;;;5028476;28;20103;-69
2023/03/12 05:24:48;;;;;;;2.05;1.20;;;5.00;70.30;;;;;;5022849;28;20041;-70
2023/03/12 05:27:14;;;;;;;1.58;1.20;;;5.10;70.40;;;;;;5020165;28;20068;-71
2023/03/12 05:29:40;;;;;;;1.48;1.02;;;5.10;70.50;;;;;;5021264;28;20119;-70
2023/03/12 05:32:08;;;;;;;1.00;0.88;;;5.10;70.40;;;;;;5028763;28;20030;-70
2023/03/12 05:34:34;;;;;;;4.18;0.98;;;5.10;70.30;;;;;;5021946;28;20217;-70
2023/03/12 05:36:59;;;;;;;1.20;1.10;;;5.10;70.50;;;;;;5003228;28;20139;-70
2023/03/12 05:39:27;;;;;;;1.90;1.25;;;5.10;70.60;;;;;;5021929;28;20030;-70
2023/03/12 05:41:55;;;;;;;1.40;1.30;;;5.10;70.80;;;;;;5027632;28;20048;-61
2023/03/12 05:44:22;;;;;;;1.73;1.20;;;5.10;71.00;;;;;;5023776;28;20072;-66
2023/03/12 05:46:48;;;;;;;2.35;1.23;;;5.10;71.30;;;;;;5021426;28;20029;-65
2023/03/12 05:49:14;;;;;;;1.45;1.00;;;5.10;71.40;;;;;;5023848;28;20129;-62
2023/03/12 05:51:42;;;;;;;1.67;0.98;;;5.10;71.40;;;;;;5024212;28;20403;-71
2023/03/12 05:54:08;;;;;;;2.00;1.63;;;5.10;71.60;;;;;;5023142;28;20026;-71
2023/03/12 05:56:35;;;;;;;2.15;1.40;;;5.10;71.70;;;;;;5019405;28;20472;-71
2023/03/12 05:59:01;;;;;;;1.70;1.23;;;5.10;71.70;;;;;;5023038;28;20022;-71
2023/03/12 06:01:28;;;;;;;0.80;0.80;;;5.10;71.80;;;;;;4999971;28;20384;-70
2023/03/12 06:03:55;;;;;;;2.75;1.45;;;5.10;71.80;;;;;;5024947;28;20036;-68
2023/03/12 06:06:22;;;;;;;2.88;1.23;;;5.10;71.80;;;;;;5027418;28;20091;-69
2023/03/12 06:08:48;;;;;;;1.35;1.20;;;5.10;71.90;;;;;;5028505;28;20104;-67
2023/03/12 06:11:14;;;;;;;2.17;1.33;;;5.10;71.80;;;;;;5021888;28;20041;-66
2023/03/12 06:13:40;;;;;;;1.20;0.88;;;5.20;71.90;;;;;;5021979;28;20029;-66
2023/03/12 06:16:19;;;;;;;1.75;1.30;;;5.20;71.90;;;;;;5023916;28;20025;-64
2023/03/12 06:18:45;;;;;;;1.52;1.40;;;5.20;71.90;;;;;;5025017;28;20366;-64
2023/03/12 06:21:13;;;;;;;1.70;1.40;;;5.20;72.00;;;;;;5010784;28;20144;-63
2023/03/12 06:23:40;;;;;;;2.05;1.45;;;5.20;72.10;;;;;;5020996;28;20404;-67
2023/03/12 06:26:07;;;;;;;3.00;1.40;;;5.20;72.00;;;;;;5022676;28;20469;-68
2023/03/12 06:28:33;;;;;;;3.20;1.80;;;5.30;72.10;;;;;;5023623;28;20058;-68
2023/03/12 06:30:59;;;;;;;2.75;1.73;;;5.20;72.20;;;;;;5019068;28;20075;-65
2023/03/12 06:33:24;;;;;;;2.53;1.38;;;5.20;72.20;;;;;;5023718;28;20026;-65
2023/03/12 06:35:58;;;;;;;3.28;1.23;;;5.20;72.20;;;;;;5001987;28;20052;-64
2023/03/12 06:38:24;;;;;;;3.15;1.65;;;5.20;72.20;;;;;;5010067;28;20032;-64
2023/03/12 06:41:17;;;;;;;2.75;1.75;;;5.20;72.40;;;;;;5023082;28;20029;-70
2023/03/12 06:43:43;;;;;;;;;;;5.20;72.30;;;;;;5023248;28;20034;-67
2023/03/12 06:46:13;;;;;;;3.45;1.60;;;5.20;72.50;;;;;;5027430;28;19917;-65
2023/03/12 06:48:40;;;;;;;2.63;1.42;;;5.10;72.70;;;;;;5021073;28;20017;-65
2023/03/12 06:51:10;;;;;;;2.28;1.83;;;5.10;72.70;;;;;;5021804;28;20029;-64
2023/03/12 06:53:37;;;;;;;2.47;1.60;;;5.10;72.70;;;;;;5003331;28;20025;-65
2023/03/12 06:56:03;;;;;;;7.40;1.67;;;5.10;72.80;;;;;;5016957;28;20025;-65
2023/03/12 06:58:29;;;;;;;3.35;1.70;;;5.10;72.90;;;;;;5023091;28;20534;-70
2023/03/12 07:00:55;;;;;;;2.55;1.42;;;5.10;73.00;;;;;;5020549;28;20047;-68
2023/03/12 07:03:21;;;;;;;4.82;1.65;;;5.10;73.20;;;;;;5030820;28;20037;-67
2023/03/12 07:05:48;;;;;;;2.30;1.70;;;5.20;73.20;;;;;;5019910;28;20030;-67
2023/03/12 07:08:15;;;;;;;3.05;1.35;;;5.20;73.40;;;;;;5024637;28;20036;-67
2023/03/12 07:10:41;;;;;;;3.10;1.73;;;5.20;73.50;;;;;;5021558;28;20030;-66
2023/03/12 07:13:07;;;;;;;2.60;1.50;;;5.20;73.60;;;;;;5004337;28;20059;-66
2023/03/12 07:15:32;;;;;;;4.22;1.70;;;5.20;73.50;;;;;;5007957;28;20034;-67
2023/03/12 07:18:02;;;;;;;1.98;1.58;;;5.20;73.60;;;;;;5022786;28;20132;-69
2023/03/12 07:20:28;;;;;;;5.90;2.40;;;5.20;73.70;;;;;;5020512;28;20037;-67
2023/03/12 07:22:53;;;;;;;5.93;1.65;;;5.30;74.10;;;;;;4990363;28;20370;-67
2023/03/12 07:25:19;;;;;;;4.30;1.00;;;5.30;74.10;;;;;;5002468;28;20045;-68
2023/03/12 07:27:45;;;;;;;4.55;1.48;;;5.40;74.10;;;;;;5016301;28;20775;-70
2023/03/12 07:30:11;;;;;;;2.00;1.23;;;5.40;74.00;;;;;;5021919;28;20080;-71
2023/03/12 07:32:36;;;;;;;2.92;1.45;;;5.40;74.00;;;;;;5006677;28;20049;-74
2023/03/12 07:35:04;;;;;;;3.60;1.50;;;5.40;74.00;;;;;;4986387;28;20629;-69
2023/03/12 07:37:31;;;;;;;3.65;1.80;;;5.40;74.30;;;;;;5025886;28;20464;-67
2023/03/12 07:39:57;;;;;;;3.42;1.50;;;5.50;74.50;;;;;;5008869;28;20041;-67
2023/03/12 07:42:23;;;;;;;6.82;2.40;;;5.50;74.80;;;;;;5023400;28;20037;-72
2023/03/12 07:44:49;;;;;;;3.33;1.60;;;5.40;75.10;;;;;;5008795;28;20388;-70
2023/03/12 07:47:14;;;;;;;6.90;2.40;;;5.40;76.20;;;;;;5011731;28;20131;-74
2023/03/12 07:49:40;;;;;;;5.55;1.80;;;5.30;76.70;;;;;;5019619;28;20021;-71
2023/03/12 07:52:08;;;;;;;1.50;1.30;;;5.30;77.10;;;;;;5026656;28;20044;-68
2023/03/12 07:54:35;;;;;;;2.47;1.15;;;5.30;77.10;;;;;;5029166;28;20477;-66
2023/03/12 07:57:01;;;;;;;2.83;1.75;;;5.30;76.80;;;;;;5023322;28;20030;-66
2023/03/12 07:59:26;;;;;;;4.28;1.70;;;5.30;77.50;;;;;;5027708;28;20083;-66
2023/03/12 08:01:52;;;;;;;1.90;1.30;;;5.40;77.00;;;;;;4985570;28;20203;-66
2023/03/12 08:04:18;;;;;;;1.30;1.10;;;5.40;77.10;;;;;;5029007;28;20041;-66
2023/03/12 08:06:44;;;;;;;2.28;1.60;;;5.40;77.10;;;;;;5035090;28;20041;-66
2023/03/12 08:09:10;;;;;;;3.83;1.90;;;5.40;77.20;;;;;;5007430;28;20038;-66
2023/03/12 08:11:36;;;;;;;1.40;1.27;;;5.40;77.10;;;;;;5012946;28;20032;-66
2023/03/12 08:14:03;;;;;;;3.17;1.80;;;5.40;77.10;;;;;;5022341;28;20030;-66
2023/03/12 08:16:29;;;;;;;3.50;1.88;;;5.50;77.20;;;;;;5031165;28;20028;-66
2023/03/12 08:18:54;;;;;;;3.20;1.77;;;5.50;77.60;;;;;;5024434;28;20265;-66
2023/03/12 08:21:20;;;;;;;4.53;1.88;;;5.50;77.70;;;;;;5025991;28;20048;-65
2023/03/12 08:23:46;;;;;;;2.08;1.60;;;5.50;77.80;;;;;;5031192;28;20500;-66
2023/03/12 08:26:12;;;;;;;5.28;1.73;;;5.50;77.70;;;;;;5028232;28;20039;-70
2023/03/12 08:28:37;;;;;;;1.90;1.30;;;5.60;77.70;;;;;;5031179;28;20350;-70
2023/03/12 08:31:03;;;;;;;5.97;2.08;;;5.60;77.70;;;;;;5010201;28;20026;-70
2023/03/12 08:33:29;;;;;;;2.15;1.83;;;5.70;77.80;;;;;;5010316;28;20046;-69
2023/03/12 08:35:55;;;;;;;2.55;1.50;;;5.70;78.20;;;;;;5013396;28;20112;-70
2023/03/12 08:38:21;;;;;;;5.38;1.80;;;5.70;78.60;;;;;;5013511;28;20410;-70
2023/03/12 08:40:53;;;;;;;3.70;1.80;;;5.70;78.70;;;;;;5032881;28;20018;-70
2023/03/12 08:43:18;;;;;;;2.45;1.77;;;5.70;78.70;;;;;;5023710;28;20112;-71
2023/03/12 08:45:44;;;;;;;3.30;1.85;;;5.70;79.10;;;;;;5033473;28;20068;-70
2023/03/12 08:48:10;;;;;;;2.05;1.60;;;5.80;79.20;;;;;;5033235;28;20044;-69
2023/03/12 08:50:35;;;;;;;2.53;1.52;;;5.80;79.30;;;;;;5019387;28;20026;-71
2023/03/12 08:53:01;;;;;;;2.17;1.58;;;5.90;79.50;;;;;;5029930;28;20044;-70
2023/03/12 08:55:27;;;;;;;2.10;1.52;;;5.90;79.20;;;;;;5027324;28;20481;-70
2023/03/12 08:57:56;;;;;;;4.93;2.30;;;5.90;79.20;;;;;;5033736;28;20022;-70
2023/03/12 09:00:23;;;;;;;2.30;1.48;;;5.90;79.60;;;;;;5016690;28;20028;-69
2023/03/12 09:02:51;;;;;;;1.48;1.38;;;5.90;79.90;;;;;;5030686;28;20059;-70
2023/03/12 09:05:16;;;;;;;4.15;2.05;;;6.00;79.90;;;;;;5030502;28;20504;-70
2023/03/12 09:07:42;;;;;;;2.70;1.80;;;6.00;79.90;;;;;;5032573;28;20026;-70
2023/03/12 09:10:08;;;;;;;1.67;1.58;;;6.10;79.90;;;;;;5021116;28;20038;-70
2023/03/12 09:12:34;;;;;;;2.63;2.00;;;6.10;80.20;;;;;;5032676;28;20246;-70
2023/03/12 09:15:00;;;;;;;4.95;2.03;;;6.10;80.60;;;;;;5032486;28;20025;-70
2023/03/12 09:17:28;;;;;;;2.58;1.63;;;6.10;80.50;;;;;;5015735;28;20026;-69
2023/03/12 09:19:55;;;;;;;3.53;2.25;;;6.10;80.80;;;;;;5030242;28;20507;-71
2023/03/12 09:22:21;;;;;;;4.40;1.90;;;6.10;82.40;;;;;;5012185;28;20485;-70
2023/03/12 09:24:47;;;;;;;3.17;2.40;;;6.10;82.30;;;;;;5026105;28;20053;-69
2023/03/12 09:27:12;;;;;;;3.20;1.85;;;6.10;82.60;;;;;;5030211;28;20037;-69
2023/03/12 09:29:38;;;;;;;2.97;2.35;;;6.10;82.50;;;;;;4984485;28;20116;-71
2023/03/12 09:32:04;;;;;;;2.45;1.90;;;6.20;82.30;;;;;;5014679;28;20041;-72
2023/03/12 09:34:30;;;;;;;3.03;1.88;;;6.20;82.30;;;;;;5015612;28;20033;-73
2023/03/12 09:36:56;;;;;;;3.60;2.53;;;6.30;82.50;;;;;;5030194;28;20040;-68
2023/03/12 09:39:22;;;;;;;2.03;1.85;;;6.30;83.10;;;;;;5000739;28;20096;-72
2023/03/12 09:41:48;;;;;;;2.78;2.08;;;6.30;82.80;;;;;;5016602;28;20040;-71
2023/03/12 09:44:42;;;;;;;5.78;2.25;;;6.30;83.20;;;;;;5023557;28;20041;-70
2023/03/12 09:47:40;;;;;;;9.30;2.33;;;6.40;83.20;;;;;;5004808;28;20041;-69
2023/03/12 09:50:12;;;;;;;3.28;2.20;;;6.40;84.10;;;;;;5022460;28;20037;-69
2023/03/12 09:52:51;;;;;;;2.87;2.27;;;6.40;84.20;;;;;;5010500;28;20496;-69
2023/03/12 09:55:20;;;;;;;3.45;2.40;;;6.50;84.20;;;;;;5026303;28;20283;-70
2023/03/12 09:57:49;;;;;;;5.90;2.97;;;6.60;84.40;;;;;;5020804;28;20044;-68
2023/03/12 10:00:21;;;;;;;3.30;2.40;;;6.60;84.50;;;;;;5022601;28;20030;-68
2023/03/12 10:02:59;;;;;;;3.15;2.78;;;6.70;84.30;;;;;;5018787;28;20033;-68
2023/03/12 10:06:00;;;;;;;2.78;2.17;;;6.80;84.40;;;;;;5023301;28;20025;-70
2023/03/12 10:08:42;;;;;;;4.70;2.83;;;6.90;84.30;;;;;;5018013;28;20439;-71
2023/03/12 10:11:45;;;;;;;5.38;2.72;;;6.90;84.30;;;;;;5027750;28;20028;-69
2023/03/12 10:14:10;;;;;;;;;;;7.00;84.20;;;;;;5028132;28;20091;-69
2023/03/12 10:16:36;;;;;;;2.50;2.30;;;7.00;84.30;;;;;;5024176;28;20364;-69
2023/03/12 10:19:11;;;;;;;7.38;4.43;;;7.00;84.30;;;;;;5029222;28;20037;-69
2023/03/12 10:22:04;;;;;;;3.97;2.80;;;7.00;84.50;;;;;;5012559;28;20099;-67
2023/03/12 10:24:59;;;;;;;6.75;3.97;;;7.10;84.60;;;;;;5026538;28;20140;-67
2023/03/12 10:27:28;;;;;;;4.28;3.33;;;7.20;84.90;;;;;;5027347;28;20030;-70
2023/03/12 10:29:54;;;;;;;9.30;4.40;;;7.30;85.30;;;;;;5025370;28;20353;-67
2023/03/12 10:32:37;;;;;;;8.10;4.90;;;7.30;85.50;;;;;;5025639;28;20492;-67
2023/03/12 10:35:17;;;;;;;4.95;3.72;;;7.30;86.20;;;;;;5026526;28;20017;-66
2023/03/12 10:38:05;;;;;;;6.13;4.55;;;7.30;86.40;;;;;;5005063;28;20021;-67
2023/03/12 10:40:34;;;;;;;5.93;4.20;;;7.40;87.00;;;;;;5022606;28;20040;-65
2023/03/12 10:43:01;;;;;;;5.07;3.97;;;7.40;86.90;;;;;;5028215;28;20037;-66
2023/03/12 10:46:00;;;;;;;10.40;5.28;;;7.50;86.70;;;;;;5023231;28;20037;-69
2023/03/12 10:48:26;;;;;;;7.15;3.83;;;7.60;86.50;;;;;;5026354;28;20172;-69
2023/03/12 10:51:02;;;;;;;6.82;4.78;;;7.60;86.40;;;;;;5026069;28;20117;-68
2023/03/12 10:53:31;;;;;;;8.57;4.80;;;7.70;86.80;;;;;;5026776;28;20515;-68
2023/03/12 10:56:17;;;;;;;7.90;4.72;;;7.80;86.70;;;;;;5021974;28;20460;-66
2023/03/12 10:58:47;;;;;;;6.88;4.72;;;7.90;86.70;;;;;;5016655;28;20047;-69
2023/03/12 11:01:25;;;;;;;7.70;5.95;;;7.90;86.80;;;;;;4996701;28;20473;-66
2023/03/12 11:03:52;;;;;;;6.22;4.68;;;8.00;87.10;;;;;;5002156;28;20438;-67
2023/03/12 11:06:26;;;;;;;8.02;5.18;;;8.10;87.30;;;;;;5029608;28;20095;-67
2023/03/12 11:09:11;;;;;;;6.75;4.13;;;8.10;87.10;;;;;;5024329;28;20120;-66
2023/03/12 11:11:36;;;;;;;8.52;5.32;;;8.20;86.70;;;;;;5004965;28;20144;-67
2023/03/12 11:14:11;;;;;;;8.80;5.78;;;8.30;86.70;;;;;;4994119;28;20116;-67
2023/03/12 11:16:37;;;;;;;11.63;6.40;;;8.40;86.80;;;;;;5025199;28;20512;-67
2023/03/12 11:19:05;;;;;;;14.35;6.43;;;8.40;86.90;;;;;;5025683;28;20030;-67
2023/03/12 11:21:35;;;;;;;11.35;6.10;;;8.50;87.80;;;;;;5029002;28;20064;-69
2023/03/12 11:24:08;;;;;;;10.73;6.72;;;8.50;87.30;;;;;;5030683;28;20037;-68
2023/03/12 11:26:50;;;;;;;12.65;6.43;;;8.60;87.20;;;;;;5014274;28;20029;-68
2023/03/12 11:29:30;;;;;;;13.13;7.57;;;8.70;87.60;;;;;;5020368;28;20067;-69
2023/03/12 11:32:12;;;;;;;8.55;6.38;;;8.70;87.60;;;;;;5031412;28;20034;-70
2023/03/12 11:34:39;;;;;;;7.65;6.03;;;8.80;87.50;;;;;;5025413;28;20503;-66
2023/03/12 11:37:07;;;;;;;7.15;5.03;;;8.90;87.40;;;;;;5012249;28;20013;-67
2023/03/12 11:40:08;;;;;;;9.38;5.30;;;9.00;87.00;;;;;;5026367;28;20116;-68
2023/03/12 11:42:55;;;;;;;11.30;6.82;;;9.10;87.50;;;;;;5027005;28;20037;-66
2023/03/12 11:45:35;;;;;;;13.05;6.15;;;9.10;87.40;;;;;;5031020;28;20112;-70
2023/03/12 11:48:21;;;;;;;8.90;4.85;;;9.20;87.90;;;;;;4996874;28;20029;-69
2023/03/12 11:51:18;;;;;;;13.10;6.28;;;9.30;88.00;;;;;;5004284;28;20041;-67
2023/03/12 11:54:09;;;;;;;9.75;5.45;;;9.50;88.10;;;;;;5020861;28;20041;-65
2023/03/12 11:56:50;;;;;;;13.55;6.43;;;9.50;87.70;;;;;;5023231;28;20067;-69
2023/03/12 11:59:42;;;;;;;11.25;5.43;;;9.60;88.30;;;;;;5028028;28;20420;-68
2023/03/12 12:02:24;;;;;;;7.93;5.47;;;9.70;88.60;;;;;;5026382;28;20030;-68
2023/03/12 12:05:18;;;;;;;11.32;6.53;;;9.70;88.20;;;;;;5027349;28;20079;-66
2023/03/12 12:08:02;;;;;;;11.50;4.90;;;9.80;88.30;;;;;;5029840;28;20037;-66
2023/03/12 12:10:58;;;;;;;14.93;5.10;;;9.90;87.90;;;;;;5027819;28;20537;-66
2023/03/12 12:13:42;;;;;;;8.00;5.53;;;10.00;88.90;;;;;;5029314;28;20432;-67
2023/03/12 12:16:29;;;;;;;8.00;4.38;;;10.10;89.10;;;;;;5026055;28;20022;-69
2023/03/12 12:19:22;;;;;;;6.38;4.53;;;10.10;89.10;;;;;;5026860;28;20025;-65
2023/03/12 12:21:51;;;;;;;15.35;5.55;;;10.20;88.90;;;;;;5032202;28;20075;-70
2023/03/12 12:24:35;;;;;;;11.95;4.25;;;10.30;88.80;;;;;;5023120;28;20038;-66
2023/03/12 12:27:04;;;;;;;12.68;4.32;;;10.30;88.80;;;;;;5028720;28;20088;-66
2023/03/12 12:29:55;;;;;;;7.30;3.80;;;10.40;89.30;;;;;;5033858;28;20030;-69
2023/03/12 12:32:41;;;;;;;14.10;3.83;;;10.40;89.40;;;;;;5023322;28;20088;-66
2023/03/12 12:35:39;;;;;;;9.55;3.95;;;10.50;89.30;;;;;;5024608;28;20049;-68
2023/03/12 12:38:29;;;;;;;8.70;3.83;;;10.50;89.00;;;;;;5024749;28;20036;-69
2023/03/12 12:41:18;;;;;;;9.23;3.45;;;10.60;89.20;;;;;;5023620;28;20065;-71
2023/03/12 12:43:58;;;;;;;13.48;4.38;;;10.60;89.00;;;;;;5023775;28;20485;-67
2023/03/12 12:46:31;;;;;;;7.85;3.70;;;10.60;88.80;;;;;;5022803;28;20104;-66
2023/03/12 12:49:11;;;;;;;13.25;4.22;;;10.70;88.50;;;;;;5028394;28;20038;-70
2023/03/12 12:51:46;;;;;;;11.80;5.00;;;10.70;88.70;;;;;;5024727;28;20080;-69
2023/03/12 12:54:21;;;;;;;21.02;3.72;;;10.70;88.40;;;;;;5006402;28;20025;-69
2023/03/12 12:56:55;;;;;;;8.68;4.38;;;10.70;88.40;;;;;;5013194;28;20057;-69
2023/03/12 12:59:43;;;;;;;9.73;4.45;;;10.70;88.50;;;;;;5027727;28;20052;-65
2023/03/12 13:02:29;;;;;;;10.55;3.40;;;10.80;88.50;;;;;;5025313;28;20045;-65
2023/03/12 13:04:57;;;;;;;18.17;5.03;;;10.90;88.30;;;;;;5021602;28;20037;-69
2023/03/12 13:07:23;;;;;;;10.63;3.15;;;10.90;88.10;;;;;;5023910;28;20053;-69
2023/03/12 13:09:51;;;;;;;8.55;2.85;;;10.90;88.10;;;;;;5026873;28;20056;-65